| time (UTC) | temp F | wind direction | speed MPH | gust MPH | rain 1hr in | rain 24hr in | rain mn in | humidity % | barometer mb |
| 20260509101425 | 44 | 156 | 6.0 | 8.0 | 0.00 | 0.00 | 0.00 | 73 | 1007.2 |
| 20260509100922 | 44 | 181 | 3.0 | 4.0 | 0.00 | 0.00 | 0.00 | 72 | 1007.1 |
| 20260509100419 | 44 | 176 | 4.0 | 4.0 | 0.00 | 0.00 | 0.00 | 72 | 1007.4 |
| 20260509095916 | 44 | 142 | 4.0 | 4.0 | 0.00 | 0.00 | 0.00 | 73 | 1007.2 |
| 20260509095413 | 44 | 163 | 5.0 | 7.0 | 0.00 | 0.00 | 0.00 | 72 | 1007.2 |
| 20260509094910 | 44 | 176 | 4.0 | 4.0 | 0.00 | 0.00 | 0.00 | 72 | 1007.2 |
| 20260509094407 | 44 | 137 | 4.0 | 4.0 | 0.00 | 0.00 | 0.00 | 72 | 1007.3 |
| 20260509093905 | 44 | 186 | 3.0 | 3.0 | 0.00 | 0.00 | 0.00 | 72 | 1007.3 |
| 20260509093402 | 44 | 178 | 3.0 | 3.0 | 0.00 | 0.00 | 0.00 | 71 | 1007.3 |
| 20260509092900 | 44 | 229 | 4.0 | 6.0 | 0.00 | 0.00 | 0.00 | 70 | 1007.3 |
| 20260509092357 | 44 | 196 | 4.0 | 4.0 | 0.00 | 0.00 | 0.00 | 71 | 1007.3 |
| 20260509091855 | 44 | 191 | 2.0 | 2.0 | 0.00 | 0.00 | 0.00 | 72 | 1007.3 |
| 20260509091352 | 44 | 186 | 2.0 | 2.0 | 0.00 | 0.00 | 0.00 | 71 | 1007.3 |
| 20260509090849 | 44 | 206 | 2.0 | 2.0 | 0.00 | 0.00 | 0.00 | 71 | 1007.4 |
| 20260509090347 | 44 | 189 | 2.0 | 2.0 | 0.00 | 0.00 | 0.00 | 70 | 1007.4 |
| 20260509085844 | 45 | 198 | 2.0 | 2.0 | 0.00 | 0.00 | 0.00 | 69 | 1007.3 |
| 20260509085341 | 45 | 216 | 1.0 | 2.0 | 0.00 | 0.00 | 0.00 | 69 | 1007.4 |
| 20260509084837 | 45 | 209 | 2.0 | 2.0 | 0.00 | 0.00 | 0.00 | 68 | 1007.5 |
| 20260509084334 | 45 | 191 | 2.0 | 2.0 | 0.00 | 0.00 | 0.00 | 69 | 1007.4 |
| 20260509083832 | 44 | 186 | 2.0 | 3.0 | 0.00 | 0.00 | 0.00 | 69 | 1007.5 |
| 20260509083329 | 44 | 200 | 2.0 | 2.0 | 0.00 | 0.00 | 0.00 | 70 | 1007.7 |
| 20260509082825 | 44 | 165 | 3.0 | 4.0 | 0.00 | 0.00 | 0.00 | 70 | 1007.6 |
| 20260509082322 | 44 | 161 | 3.0 | 3.0 | 0.00 | 0.00 | 0.00 | 69 | 1007.8 |
| 20260509081820 | 44 | 163 | 3.0 | 3.0 | 0.00 | 0.00 | 0.00 | 70 | 1007.8 |
| 20260509081316 | 44 | 173 | 3.0 | 3.0 | 0.00 | 0.00 | 0.00 | 70 | 1007.8 |
| 20260509080815 | 44 | 167 | 2.0 | 3.0 | 0.00 | 0.00 | 0.00 | 71 | 1007.7 |
| 20260509080312 | 44 | 174 | 2.0 | 3.0 | 0.00 | 0.00 | 0.00 | 71 | 1007.7 |
| 20260509075810 | 44 | 191 | 3.0 | 3.0 | 0.00 | 0.00 | 0.00 | 71 | 1007.9 |
| 20260509075307 | 44 | 156 | 5.0 | 6.0 | 0.00 | 0.00 | 0.00 | 71 | 1008.0 |
| 20260509074804 | 44 | 194 | 2.0 | 2.0 | 0.00 | 0.00 | 0.00 | 72 | 1007.9 |
| 20260509074302 | 44 | 160 | 3.0 | 3.0 | 0.00 | 0.00 | 0.00 | 71 | 1007.9 |
| 20260509073757 | 44 | 150 | 3.0 | 3.0 | 0.00 | 0.00 | 0.00 | 70 | 1008.2 |
| 20260509073254 | 44 | 161 | 3.0 | 3.0 | 0.00 | 0.00 | 0.00 | 71 | 1008.0 |
| 20260509072750 | 44 | 164 | 3.0 | 3.0 | 0.00 | 0.00 | 0.00 | 70 | 1008.1 |
| 20260509072248 | 44 | 178 | 3.0 | 3.0 | 0.00 | 0.00 | 0.00 | 71 | 1008.2 |
| 20260509071744 | 44 | 172 | 4.0 | 4.0 | 0.00 | 0.00 | 0.00 | 70 | 1008.2 |
| 20260509071241 | 44 | 162 | 3.0 | 3.0 | 0.00 | 0.00 | 0.00 | 70 | 1008.3 |
| 20260509070738 | 45 | 177 | 2.0 | 2.0 | 0.00 | 0.00 | 0.00 | 69 | 1008.4 |
| 20260509070235 | 45 | 167 | 2.0 | 3.0 | 0.00 | 0.00 | 0.00 | 68 | 1008.4 |
| 20260509065731 | 45 | 169 | 4.0 | 4.0 | 0.00 | 0.00 | 0.00 | 67 | 1008.4 |
| 20260509065227 | 45 | 167 | 2.0 | 3.0 | 0.00 | 0.00 | 0.00 | 67 | 1008.3 |
| 20260509064724 | 45 | 166 | 3.0 | 3.0 | 0.00 | 0.00 | 0.00 | 66 | 1008.4 |
| 20260509064222 | 45 | 181 | 3.0 | 3.0 | 0.00 | 0.00 | 0.00 | 67 | 1008.5 |
| 20260509063719 | 46 | 115 | 4.0 | 4.0 | 0.00 | 0.00 | 0.00 | 66 | 1008.4 |
| 20260509063215 | 46 | 173 | 2.0 | 3.0 | 0.00 | 0.00 | 0.00 | 66 | 1008.6 |
| 20260509062712 | 46 | 183 | 3.0 | 4.0 | 0.00 | 0.00 | 0.00 | 66 | 1008.8 |
| 20260509062209 | 45 | 169 | 4.0 | 4.0 | 0.00 | 0.00 | 0.00 | 66 | 1008.8 |
| 20260509061706 | 45 | 198 | 2.0 | 3.0 | 0.00 | 0.00 | 0.00 | 66 | 1008.8 |
| 20260509061204 | 45 | 182 | 2.0 | 2.0 | 0.00 | 0.00 | 0.00 | 66 | 1009.0 |
| 20260509060701 | 46 | 184 | 2.0 | 2.0 | 0.00 | 0.00 | 0.00 | 66 | 1009.2 |
| 20260509060157 | 46 | 162 | 3.0 | 3.0 | 0.00 | 0.00 | 0.00 | 65 | 1008.9 |
| 20260509055653 | 46 | 163 | 2.0 | 3.0 | 0.00 | 0.00 | 0.00 | 66 | 1009.0 |
| 20260509055149 | 46 | 172 | 2.0 | 3.0 | 0.00 | 0.00 | 0.00 | 66 | 1009.2 |
| 20260509054646 | 46 | 197 | 2.0 | 2.0 | 0.00 | 0.00 | 0.00 | 66 | 1008.9 |
| 20260509054143 | 46 | 209 | 2.0 | 2.0 | 0.00 | 0.00 | 0.00 | 67 | 1009.2 |
| 20260509053642 | 46 | 200 | 2.0 | 3.0 | 0.00 | 0.00 | 0.00 | 67 | 1009.5 |
| 20260509053138 | 46 | 188 | 2.0 | 3.0 | 0.00 | 0.00 | 0.00 | 66 | 1009.4 |
| 20260509052636 | 46 | 183 | 3.0 | 3.0 | 0.00 | 0.00 | 0.00 | 66 | 1009.4 |
| 20260509052133 | 46 | 168 | 2.0 | 3.0 | 0.00 | 0.00 | 0.00 | 67 | 1009.5 |
| 20260509051631 | 46 | 225 | 2.0 | 3.0 | 0.00 | 0.00 | 0.00 | 67 | 1009.6 |
| 20260509051128 | 45 | 215 | 2.0 | 2.0 | 0.00 | 0.00 | 0.00 | 67 | 1009.5 |
| 20260509050625 | 46 | 207 | 1.0 | 2.0 | 0.00 | 0.00 | 0.00 | 67 | 1009.5 |
| 20260509050121 | 46 | 196 | 2.0 | 2.0 | 0.00 | 0.00 | 0.00 | 68 | 1009.5 |
| 20260509045620 | 45 | 196 | 2.0 | 3.0 | 0.00 | 0.00 | 0.00 | 68 | 1009.6 |
| 20260509045116 | 45 | 203 | 2.0 | 2.0 | 0.00 | 0.00 | 0.00 | 68 | 1009.6 |
| 20260509044613 | 45 | 213 | 2.0 | 2.0 | 0.00 | 0.00 | 0.00 | 68 | 1009.6 |
| 20260509044110 | 45 | 199 | 2.0 | 2.0 | 0.00 | 0.00 | 0.00 | 68 | 1009.7 |
| 20260509043607 | 45 | 204 | 2.0 | 2.0 | 0.00 | 0.00 | 0.00 | 69 | 1009.8 |
| 20260509043102 | 45 | 216 | 2.0 | 2.0 | 0.00 | 0.00 | 0.00 | 69 | 1009.8 |
| 20260509042559 | 45 | 213 | 2.0 | 2.0 | 0.00 | 0.00 | 0.00 | 69 | 1009.8 |
| 20260509042055 | 45 | 219 | 1.0 | 2.0 | 0.00 | 0.00 | 0.00 | 69 | 1009.7 |
| 20260509041552 | 45 | 181 | 2.0 | 2.0 | 0.00 | 0.00 | 0.00 | 69 | 1009.9 |
| 20260509041049 | 45 | 203 | 2.0 | 2.0 | 0.00 | 0.00 | 0.00 | 69 | 1009.9 |
| 20260509040548 | 45 | 204 | 2.0 | 2.0 | 0.00 | 0.00 | 0.00 | 70 | 1010.0 |
| 20260509040044 | 45 | 192 | 2.0 | 2.0 | 0.00 | 0.03 | 0.03 | 71 | 1010.1 |
| 20260509035541 | 45 | 189 | 2.0 | 2.0 | 0.00 | 0.03 | 0.03 | 71 | 1010.2 |
| 20260509035038 | 45 | 210 | 2.0 | 2.0 | 0.00 | 0.03 | 0.03 | 71 | 1010.1 |
| 20260509034536 | 45 | 198 | 2.0 | 2.0 | 0.00 | 0.03 | 0.03 | 71 | 1009.9 |
| 20260509034033 | 45 | 201 | 2.0 | 2.0 | 0.00 | 0.03 | 0.03 | 69 | 1010.1 |
| 20260509033530 | 46 | 139 | 3.0 | 3.0 | 0.00 | 0.03 | 0.03 | 69 | 1010.1 |
| 20260509033027 | 46 | 190 | 1.0 | 2.0 | 0.00 | 0.03 | 0.03 | 69 | 1010.0 |
| 20260509032524 | 46 | 170 | 2.0 | 3.0 | 0.00 | 0.03 | 0.03 | 68 | 1010.0 |
| 20260509032021 | 46 | 198 | 2.0 | 2.0 | 0.00 | 0.03 | 0.03 | 68 | 1010.1 |
| 20260509031518 | 46 | 185 | 2.0 | 2.0 | 0.00 | 0.03 | 0.03 | 67 | 1010.1 |
| 20260509031015 | 46 | 198 | 2.0 | 2.0 | 0.00 | 0.03 | 0.03 | 67 | 1010.2 |
| 20260509030514 | 46 | 191 | 2.0 | 2.0 | 0.00 | 0.03 | 0.03 | 66 | 1010.2 |
| 20260509030010 | 46 | 189 | 2.0 | 2.0 | 0.00 | 0.03 | 0.03 | 66 | 1010.3 |
| 20260509025506 | 46 | 210 | 2.0 | 2.0 | 0.00 | 0.03 | 0.03 | 67 | 1010.3 |
| 20260509025001 | 46 | 204 | 2.0 | 2.0 | 0.00 | 0.03 | 0.03 | 68 | 1010.1 |
| 20260509024458 | 47 | 194 | 2.0 | 2.0 | 0.00 | 0.03 | 0.03 | 67 | 1010.3 |
| 20260509023954 | 47 | 197 | 2.0 | 2.0 | 0.00 | 0.03 | 0.03 | 67 | 1010.3 |
| 20260509023452 | 46 | 174 | 2.0 | 3.0 | 0.00 | 0.03 | 0.03 | 67 | 1010.2 |
| 20260509022949 | 46 | 200 | 2.0 | 2.0 | 0.00 | 0.03 | 0.03 | 68 | 1010.2 |
| 20260509022445 | 46 | 166 | 2.0 | 3.0 | 0.00 | 0.03 | 0.03 | 67 | 1010.2 |
| 20260509021943 | 45 | 213 | 1.0 | 2.0 | 0.00 | 0.03 | 0.03 | 70 | 1010.3 |
| 20260509021439 | 44 | 214 | 1.0 | 1.0 | 0.00 | 0.03 | 0.03 | 72 | 1010.4 |
| 20260509020937 | 43 | 217 | 1.0 | 1.0 | 0.00 | 0.03 | 0.03 | 77 | 1010.1 |
| 20260509020435 | 44 | 178 | 1.0 | 2.0 | 0.00 | 0.03 | 0.03 | 76 | 1010.2 |
| 20260509015932 | 42 | 222 | 0.0 | 0.0 | 0.00 | 0.03 | 0.03 | 79 | 1010.3 |
| 20260509015431 | 42 | 235 | 0.0 | 0.0 | 0.00 | 0.03 | 0.03 | 82 | 1010.2 |
| 20260509014927 | 43 | 231 | 0.0 | 0.0 | 0.00 | 0.03 | 0.03 | 81 | 1010.2 |
| 20260509014424 | 43 | 228 | 0.0 | 0.0 | 0.00 | 0.03 | 0.03 | 79 | 1010.3 |
| 20260509013920 | 43 | 207 | 0.0 | 0.0 | 0.00 | 0.03 | 0.03 | 79 | 1010.4 |
| 20260509013417 | 43 | 218 | 0.0 | 0.0 | 0.00 | 0.03 | 0.03 | 78 | 1010.4 |
| 20260509012913 | 44 | 249 | 0.0 | 0.0 | 0.00 | 0.03 | 0.03 | 74 | 1010.3 |
| 20260509012409 | 45 | 224 | 0.0 | 0.0 | 0.00 | 0.03 | 0.03 | 73 | 1010.2 |
| 20260509011907 | 45 | 234 | 0.0 | 0.0 | 0.00 | 0.03 | 0.03 | 71 | 1010.1 |
| 20260509011404 | 45 | 230 | 0.0 | 0.0 | 0.00 | 0.03 | 0.03 | 69 | 1010.1 |
| 20260509010902 | 45 | 225 | 1.0 | 1.0 | 0.00 | 0.03 | 0.03 | 71 | 1010.0 |
| 20260509010359 | 45 | 229 | 0.0 | 0.0 | 0.00 | 0.03 | 0.03 | 72 | 1009.8 |
| 20260509005856 | 46 | 221 | 0.0 | 0.0 | 0.00 | 0.03 | 0.03 | 70 | 1009.6 |
| 20260509005354 | 46 | 236 | 0.0 | 0.0 | 0.00 | 0.03 | 0.03 | 69 | 1009.6 |
| 20260509004854 | 46 | 235 | 0.0 | 0.0 | 0.00 | 0.03 | 0.03 | 68 | 1009.7 |
| 20260509004351 | 46 | 232 | 0.0 | 0.0 | 0.00 | 0.03 | 0.03 | 69 | 1009.6 |
| 20260509003849 | 46 | 236 | 0.0 | 0.0 | 0.00 | 0.03 | 0.03 | 68 | 1009.6 |
| 20260509003346 | 47 | 235 | 0.0 | 0.0 | 0.00 | 0.03 | 0.03 | 66 | 1009.5 |
| 20260509002843 | 47 | 239 | 0.0 | 0.0 | 0.00 | 0.03 | 0.03 | 64 | 1009.6 |
| 20260509002341 | 48 | 244 | 0.0 | 0.0 | 0.00 | 0.03 | 0.03 | 63 | 1009.7 |
| 20260509001838 | 48 | 229 | 0.0 | 0.0 | 0.00 | 0.03 | 0.03 | 62 | 1009.4 |
| 20260509001334 | 49 | 239 | 0.0 | 0.0 | 0.00 | 0.03 | 0.03 | 61 | 1009.4 |
| 20260509000832 | 49 | 204 | 1.0 | 1.0 | 0.00 | 0.03 | 0.03 | 61 | 1009.4 |
| 20260509000329 | 49 | 256 | 1.0 | 1.0 | 0.00 | 0.03 | 0.03 | 59 | 1009.4 |
| 20260508235825 | 50 | 89 | 2.0 | 2.0 | 0.00 | 0.03 | 0.03 | 58 | 1009.4 |
| 20260508235322 | 50 | 163 | 1.0 | 1.0 | 0.00 | 0.03 | 0.03 | 59 | 1009.6 |
| 20260508234820 | 49 | 209 | 0.0 | 0.0 | 0.00 | 0.03 | 0.03 | 59 | 1009.3 |
| 20260508234316 | 50 | 286 | 0.0 | 0.0 | 0.00 | 0.03 | 0.03 | 60 | 1009.4 |
| 20260508233814 | 50 | 291 | 0.0 | 1.0 | 0.00 | 0.03 | 0.03 | 59 | 1009.4 |
| 20260508233313 | 50 | 295 | 1.0 | 1.0 | 0.00 | 0.03 | 0.03 | 58 | 1009.3 |
| 20260508232810 | 50 | 294 | 1.0 | 2.0 | 0.00 | 0.03 | 0.03 | 61 | 1009.2 |
| 20260508232307 | 51 | 254 | 1.0 | 1.0 | 0.00 | 0.03 | 0.03 | 59 | 1009.3 |
| 20260508231805 | 51 | 182 | 1.0 | 1.0 | 0.00 | 0.03 | 0.03 | 60 | 1009.2 |
| 20260508231300 | 52 | 90 | 3.0 | 3.0 | 0.00 | 0.03 | 0.03 | 54 | 1008.9 |
| 20260508230757 | 52 | 276 | 2.0 | 2.0 | 0.00 | 0.03 | 0.03 | 59 | 1009.0 |
| 20260508230254 | 52 | 0 | 3.0 | 3.0 | 0.00 | 0.03 | 0.03 | 56 | 1009.4 |
| 20260508225752 | 52 | 276 | 0.0 | 1.0 | 0.00 | 0.03 | 0.03 | 53 | 1009.0 |
| 20260508225248 | 52 | 215 | 2.0 | 2.0 | 0.00 | 0.03 | 0.03 | 54 | 1009.3 |
| 20260508224746 | 52 | 291 | 2.0 | 2.0 | 0.00 | 0.03 | 0.03 | 52 | 1009.4 |
| 20260508224243 | 52 | 10 | 3.0 | 3.0 | 0.00 | 0.03 | 0.03 | 51 | 1009.4 |
| 20260508223741 | 52 | 16 | 3.0 | 3.0 | 0.00 | 0.03 | 0.03 | 53 | 1009.4 |
| 20260508223238 | 52 | 4 | 3.0 | 3.0 | 0.00 | 0.03 | 0.03 | 52 | 1009.2 |
| 20260508222735 | 53 | 306 | 2.0 | 2.0 | 0.00 | 0.03 | 0.03 | 52 | 1009.3 |
| 20260508222232 | 53 | 302 | 2.0 | 3.0 | 0.00 | 0.03 | 0.03 | 52 | 1009.4 |
| 20260508221728 | 52 | 347 | 4.0 | 4.0 | 0.00 | 0.03 | 0.03 | 53 | 1009.5 |
| 20260508221225 | 53 | 354 | 7.0 | 8.0 | 0.00 | 0.03 | 0.03 | 54 | 1009.4 |
| 20260508220721 | 52 | 5 | 6.0 | 7.0 | 0.00 | 0.03 | 0.03 | 54 | 1009.5 |
| 20260508220218 | 52 | 24 | 7.0 | 8.0 | 0.00 | 0.03 | 0.03 | 58 | 1009.6 |
| 20260508215714 | 53 | 338 | 6.0 | 6.0 | 0.00 | 0.03 | 0.03 | 59 | 1009.7 |
| 20260508215211 | 53 | 1 | 4.0 | 4.0 | 0.00 | 0.03 | 0.03 | 57 | 1009.6 |
| 20260508214708 | 54 | 324 | 3.0 | 3.0 | 0.00 | 0.03 | 0.03 | 52 | 1009.7 |
| 20260508214205 | 54 | 10 | 4.0 | 6.0 | 0.00 | 0.03 | 0.03 | 54 | 1009.6 |
| 20260508213701 | 54 | 6 | 4.0 | 6.0 | 0.00 | 0.03 | 0.03 | 50 | 1009.7 |
| 20260508213158 | 55 | 355 | 3.0 | 4.0 | 0.00 | 0.03 | 0.03 | 50 | 1009.4 |
| 20260508212654 | 55 | 210 | 1.0 | 2.0 | 0.00 | 0.03 | 0.03 | 49 | 1009.6 |
| 20260508212151 | 55 | 308 | 1.0 | 2.0 | 0.00 | 0.03 | 0.03 | 51 | 1009.7 |
| 20260508211652 | 55 | 314 | 3.0 | 4.0 | 0.00 | 0.03 | 0.03 | 49 | 1009.6 |
| 20260508211148 | 54 | 282 | 1.0 | 1.0 | 0.00 | 0.03 | 0.03 | 54 | 1009.5 |
| 20260508210645 | 55 | 314 | 2.0 | 2.0 | 0.00 | 0.03 | 0.03 | 52 | 1009.7 |
| 20260508210143 | 55 | 344 | 2.0 | 3.0 | 0.00 | 0.03 | 0.03 | 58 | 1009.5 |
| 20260508205639 | 53 | 259 | 0.0 | 1.0 | 0.00 | 0.03 | 0.03 | 51 | 1009.7 |
| 20260508205136 | 54 | 341 | 4.0 | 4.0 | 0.00 | 0.03 | 0.03 | 59 | 1009.9 |
| 20260508204632 | 53 | 316 | 2.0 | 3.0 | 0.00 | 0.03 | 0.03 | 57 | 1009.7 |
| 20260508204128 | 53 | 327 | 4.0 | 4.0 | 0.00 | 0.03 | 0.03 | 63 | 1009.8 |
| 20260508203624 | 53 | 295 | 2.0 | 3.0 | 0.00 | 0.03 | 0.03 | 59 | 1010.0 |
| 20260508203121 | 53 | 18 | 5.0 | 6.0 | 0.00 | 0.03 | 0.03 | 57 | 1010.0 |
| 20260508202617 | 52 | 284 | 1.0 | 1.0 | 0.00 | 0.03 | 0.03 | 55 | 1010.1 |
| 20260508202114 | 52 | 351 | 3.0 | 4.0 | 0.00 | 0.03 | 0.03 | 58 | 1010.0 |
| 20260508201611 | 52 | 339 | 7.0 | 9.0 | 0.00 | 0.03 | 0.03 | 59 | 1010.3 |
| 20260508201108 | 51 | 329 | 6.0 | 7.0 | 0.00 | 0.03 | 0.03 | 62 | 1010.2 |
| 20260508200605 | 52 | 5 | 6.0 | 7.0 | 0.00 | 0.03 | 0.03 | 62 | 1010.2 |
| 20260508200100 | 51 | 358 | 8.0 | 9.0 | 0.00 | 0.03 | 0.03 | 66 | 1010.2 |
| 20260508195557 | 51 | 347 | 8.0 | 9.0 | 0.00 | 0.03 | 0.03 | 66 | 1010.3 |
| 20260508195053 | 52 | 353 | 5.0 | 6.0 | 0.00 | 0.03 | 0.03 | 67 | 1010.2 |
| 20260508194550 | 51 | 333 | 3.0 | 3.0 | 0.00 | 0.03 | 0.03 | 65 | 1010.4 |
| 20260508194048 | 52 | 351 | 3.0 | 4.0 | 0.00 | 0.03 | 0.03 | 66 | 1010.4 |
| 20260508193544 | 52 | 29 | 8.0 | 9.0 | 0.00 | 0.03 | 0.03 | 67 | 1010.4 |
| 20260508193041 | 53 | 30 | 5.0 | 8.0 | 0.00 | 0.03 | 0.03 | 67 | 1010.5 |
| 20260508192538 | 52 | 26 | 2.0 | 3.0 | 0.00 | 0.03 | 0.03 | 67 | 1010.6 |
| 20260508192035 | 53 | 347 | 6.0 | 8.0 | 0.00 | 0.03 | 0.03 | 68 | 1010.6 |
| 20260508191531 | 53 | 14 | 5.0 | 7.0 | 0.00 | 0.03 | 0.03 | 64 | 1010.7 |
| 20260508191028 | 52 | 294 | 4.0 | 4.0 | 0.00 | 0.03 | 0.03 | 68 | 1010.5 |
| 20260508190525 | 53 | 273 | 2.0 | 3.0 | 0.00 | 0.03 | 0.03 | 61 | 1010.6 |
| 20260508190021 | 52 | 10 | 4.0 | 6.0 | 0.00 | 0.03 | 0.03 | 61 | 1010.8 |
| 20260508185519 | 53 | 358 | 5.0 | 6.0 | 0.00 | 0.03 | 0.03 | 61 | 1010.7 |
| 20260508185017 | 53 | 307 | 4.0 | 4.0 | 0.00 | 0.03 | 0.03 | 61 | 1010.5 |
| 20260508184514 | 53 | 296 | 1.0 | 1.0 | 0.00 | 0.03 | 0.03 | 64 | 1010.6 |
| 20260508184011 | 52 | 342 | 3.0 | 3.0 | 0.00 | 0.03 | 0.03 | 65 | 1010.6 |
| 20260508183507 | 52 | 349 | 4.0 | 6.0 | 0.00 | 0.03 | 0.03 | 66 | 1010.6 |
| 20260508183002 | 52 | 331 | 5.0 | 6.0 | 0.00 | 0.03 | 0.03 | 64 | 1010.8 |
| 20260508182459 | 52 | 19 | 4.0 | 4.0 | 0.00 | 0.03 | 0.03 | 67 | 1010.7 |
| 20260508181955 | 51 | 0 | 5.0 | 7.0 | 0.00 | 0.03 | 0.03 | 68 | 1010.8 |
| 20260508181451 | 51 | 16 | 6.0 | 8.0 | 0.00 | 0.03 | 0.03 | 72 | 1010.7 |
| 20260508180949 | 52 | 344 | 10.0 | 11.0 | 0.00 | 0.03 | 0.03 | 71 | 1010.8 |
| 20260508180446 | 52 | 283 | 2.0 | 2.0 | 0.00 | 0.03 | 0.03 | 59 | 1010.9 |
| 20260508175942 | 51 | 290 | 4.0 | 6.0 | 0.00 | 0.03 | 0.03 | 63 | 1010.9 |
| 20260508175438 | 51 | 324 | 6.0 | 7.0 | 0.00 | 0.03 | 0.03 | 61 | 1010.8 |
| 20260508174936 | 51 | 290 | 5.0 | 6.0 | 0.00 | 0.03 | 0.03 | 61 | 1011.0 |
| 20260508174434 | 53 | 329 | 8.0 | 9.0 | 0.00 | 0.03 | 0.03 | 63 | 1010.9 |
| 20260508173930 | 54 | 223 | 2.0 | 2.0 | 0.00 | 0.03 | 0.03 | 56 | 1010.9 |
| 20260508173428 | 52 | 264 | 1.0 | 1.0 | 0.00 | 0.03 | 0.03 | 56 | 1011.0 |
| 20260508172923 | 53 | 255 | 3.0 | 3.0 | 0.07 | 0.03 | 0.03 | 61 | 1011.1 |
| 20260508172421 | 53 | 272 | 5.0 | 6.0 | 0.07 | 0.03 | 0.03 | 51 | 1011.1 |
| 20260508171917 | 53 | 301 | 4.0 | 6.0 | 0.07 | 0.03 | 0.03 | 55 | 1011.1 |
| 20260508171413 | 52 | 267 | 4.0 | 4.0 | 0.00 | 0.02 | 0.02 | 55 | 1011.0 |
| 20260508170910 | 51 | 261 | 3.0 | 4.0 | 0.00 | 0.02 | 0.02 | 60 | 1011.2 |
| 20260508170408 | 51 | 295 | 2.0 | 3.0 | 0.00 | 0.02 | 0.02 | 62 | 1011.2 |
| 20260508165904 | 52 | 275 | 2.0 | 3.0 | 0.00 | 0.02 | 0.02 | 57 | 1011.5 |
| 20260508165402 | 51 | 266 | 4.0 | 4.0 | 0.00 | 0.02 | 0.02 | 60 | 1011.4 |
| 20260508164857 | 51 | 249 | 1.0 | 1.0 | 0.00 | 0.02 | 0.02 | 63 | 1011.4 |
| 20260508164355 | 50 | 255 | 1.0 | 2.0 | 0.00 | 0.02 | 0.02 | 64 | 1011.5 |
| 20260508163852 | 50 | 218 | 2.0 | 2.0 | 0.00 | 0.02 | 0.02 | 61 | 1011.7 |
| 20260508163350 | 49 | 258 | 1.0 | 2.0 | 0.00 | 0.02 | 0.02 | 69 | 1011.7 |
| 20260508162851 | 48 | 270 | 2.0 | 3.0 | 0.00 | 0.02 | 0.02 | 67 | 1011.8 |
| 20260508162349 | 49 | 273 | 5.0 | 6.0 | 0.00 | 0.02 | 0.02 | 67 | 1011.8 |
| 20260508161845 | 50 | 297 | 2.0 | 3.0 | 0.00 | 0.02 | 0.02 | 68 | 1011.9 |
| 20260508161343 | 50 | 212 | 2.0 | 3.0 | 0.00 | 0.02 | 0.02 | 63 | 1011.9 |
| 20260508160840 | 49 | 254 | 1.0 | 1.0 | 0.00 | 0.02 | 0.02 | 67 | 1011.7 |
| 20260508160338 | 50 | 245 | 3.0 | 3.0 | 0.00 | 0.02 | 0.02 | 66 | 1011.8 |
| 20260508155834 | 48 | 197 | 1.0 | 2.0 | 0.00 | 0.02 | 0.02 | 68 | 1012.0 |
| 20260508155332 | 49 | 284 | 1.0 | 2.0 | 0.00 | 0.02 | 0.02 | 66 | 1011.9 |
| 20260508154828 | 48 | 260 | 2.0 | 3.0 | 0.00 | 0.02 | 0.02 | 67 | 1011.9 |
| 20260508154326 | 49 | 276 | 4.0 | 4.0 | 0.00 | 0.02 | 0.02 | 65 | 1011.8 |
| 20260508153822 | 50 | 211 | 3.0 | 3.0 | 0.00 | 0.02 | 0.02 | 65 | 1011.7 |
| 20260508153321 | 49 | 224 | 3.0 | 4.0 | 0.00 | 0.02 | 0.02 | 68 | 1011.7 |
| 20260508152815 | 48 | 222 | 2.0 | 2.0 | 0.00 | 0.02 | 0.02 | 62 | 1011.8 |
| 20260508152312 | 48 | 238 | 4.0 | 4.0 | 0.00 | 0.02 | 0.02 | 73 | 1011.7 |
| 20260508151808 | 49 | 271 | 1.0 | 1.0 | 0.00 | 0.02 | 0.02 | 71 | 1011.7 |
| 20260508151305 | 49 | 234 | 2.0 | 3.0 | 0.00 | 0.02 | 0.02 | 72 | 1011.7 |
| 20260508150802 | 48 | 230 | 1.0 | 1.0 | 0.00 | 0.02 | 0.02 | 71 | 1011.8 |
| 20260508150258 | 48 | 222 | 4.0 | 4.0 | 0.00 | 0.02 | 0.02 | 74 | 1011.9 |
| 20260508145755 | 48 | 228 | 2.0 | 2.0 | 0.00 | 0.02 | 0.02 | 73 | 1011.6 |
| 20260508145251 | 47 | 273 | 1.0 | 2.0 | 0.00 | 0.02 | 0.02 | 76 | 1011.6 |
| 20260508144748 | 47 | 254 | 4.0 | 6.0 | 0.00 | 0.02 | 0.02 | 78 | 1011.7 |
| 20260508144246 | 46 | 213 | 2.0 | 2.0 | 0.00 | 0.02 | 0.02 | 74 | 1011.7 |
| 20260508143743 | 46 | 257 | 2.0 | 2.0 | 0.00 | 0.02 | 0.02 | 79 | 1011.8 |
| 20260508143240 | 45 | 241 | 3.0 | 3.0 | 0.00 | 0.02 | 0.02 | 79 | 1011.5 |
| 20260508142736 | 45 | 240 | 3.0 | 3.0 | 0.00 | 0.02 | 0.02 | 81 | 1011.7 |
| 20260508142233 | 45 | 226 | 3.0 | 4.0 | 0.00 | 0.02 | 0.02 | 81 | 1011.7 |
| 20260508141730 | 45 | 250 | 4.0 | 4.0 | 0.00 | 0.02 | 0.02 | 82 | 1011.6 |
| 20260508141227 | 44 | 233 | 1.0 | 2.0 | 0.00 | 0.02 | 0.02 | 83 | 1011.7 |
| 20260508140725 | 43 | 237 | 2.0 | 2.0 | 0.00 | 0.02 | 0.02 | 85 | 1011.6 |
| 20260508140221 | 43 | 238 | 0.0 | 1.0 | 0.00 | 0.02 | 0.02 | 86 | 1011.6 |
| 20260508135717 | 43 | 234 | 2.0 | 2.0 | 0.00 | 0.02 | 0.02 | 86 | 1011.7 |
| 20260508135213 | 43 | 233 | 2.0 | 2.0 | 0.00 | 0.02 | 0.02 | 88 | 1011.6 |
| 20260508134709 | 43 | 213 | 4.0 | 4.0 | 0.00 | 0.02 | 0.02 | 89 | 1011.4 |
| 20260508134207 | 43 | 231 | 3.0 | 3.0 | 0.00 | 0.02 | 0.02 | 89 | 1011.6 |
| 20260508133703 | 43 | 235 | 3.0 | 3.0 | 0.00 | 0.02 | 0.02 | 89 | 1011.8 |
| 20260508133201 | 42 | 245 | 3.0 | 3.0 | 0.00 | 0.02 | 0.02 | 88 | 1011.8 |
| 20260508132659 | 42 | 218 | 3.0 | 3.0 | 0.00 | 0.02 | 0.02 | 88 | 1011.9 |
| 20260508132156 | 42 | 226 | 2.0 | 3.0 | 0.00 | 0.02 | 0.02 | 89 | 1011.7 |
| 20260508131651 | 42 | 221 | 2.0 | 3.0 | 0.00 | 0.02 | 0.02 | 91 | 1011.7 |
| 20260508131148 | 41 | 213 | 5.0 | 6.0 | 0.00 | 0.02 | 0.02 | 90 | 1011.6 |
| 20260508130644 | 41 | 212 | 6.0 | 8.0 | 0.00 | 0.02 | 0.02 | 88 | 1011.7 |
| 20260508130142 | 43 | 213 | 8.0 | 8.0 | 0.00 | 0.02 | 0.02 | 90 | 1011.8 |
| 20260508125637 | 44 | 238 | 1.0 | 2.0 | 0.00 | 0.02 | 0.02 | 91 | 1011.9 |
| 20260508125134 | 43 | 222 | 2.0 | 3.0 | 0.00 | 0.02 | 0.02 | 90 | 1011.7 |
| 20260508124632 | 43 | 223 | 2.0 | 3.0 | 0.00 | 0.02 | 0.02 | 92 | 1011.7 |
| 20260508124129 | 43 | 264 | 2.0 | 2.0 | 0.00 | 0.02 | 0.02 | 93 | 1011.6 |
| 20260508123627 | 42 | 238 | 2.0 | 2.0 | 0.00 | 0.02 | 0.02 | 93 | 1011.5 |
| 20260508123124 | 42 | 198 | 4.0 | 6.0 | 0.00 | 0.02 | 0.02 | 95 | 1011.5 |
| 20260508122620 | 42 | 246 | 1.0 | 1.0 | 0.00 | 0.02 | 0.02 | 96 | 1011.5 |
| 20260508122118 | 42 | 246 | 0.0 | 0.0 | 0.00 | 0.02 | 0.02 | 96 | 1011.5 |
| 20260508121616 | 42 | 228 | 0.0 | 0.0 | 0.00 | 0.02 | 0.02 | 97 | 1011.6 |
| 20260508121114 | 42 | 262 | 1.0 | 1.0 | 0.00 | 0.02 | 0.02 | 97 | 1011.4 |
| 20260508120611 | 42 | 248 | 0.0 | 0.0 | 0.00 | 0.02 | 0.02 | 97 | 1011.5 |
| 20260508120109 | 41 | 234 | 1.0 | 1.0 | 0.00 | 0.02 | 0.02 | 98 | 1011.3 |
| 20260508115606 | 42 | 237 | 1.0 | 1.0 | 0.00 | 0.02 | 0.02 | 98 | 1011.2 |
| 20260508115103 | 41 | 245 | 0.0 | 1.0 | 0.00 | 0.02 | 0.02 | 98 | 1011.0 |
| 20260508114600 | 41 | 231 | 0.0 | 0.0 | 0.00 | 0.02 | 0.02 | 99 | 1010.9 |
| 20260508114056 | 41 | 230 | 0.0 | 0.0 | 0.00 | 0.02 | 0.02 | 99 | 1010.9 |
| 20260508113554 | 41 | 239 | 0.0 | 0.0 | 0.05 | 0.02 | 0.02 | 99 | 1010.9 |
| 20260508113052 | 41 | 241 | 0.0 | 0.0 | 0.05 | 0.02 | 0.02 | 99 | 1010.9 |
| 20260508112547 | 41 | 235 | 0.0 | 0.0 | 0.00 | 0.01 | 0.01 | 99 | 1010.8 |
| 20260508112044 | 41 | 240 | 0.0 | 0.0 | 0.00 | 0.01 | 0.01 | 99 | 1010.6 |
| 20260508111542 | 41 | 211 | 0.0 | 0.0 | 0.00 | 0.01 | 0.01 | 99 | 1010.6 |
| 20260508111038 | 40 | 239 | 0.0 | 0.0 | 0.00 | 0.01 | 0.01 | 99 | 1010.6 |
| 20260508110536 | 40 | 236 | 0.0 | 0.0 | 0.00 | 0.01 | 0.01 | 99 | 1010.4 |
| 20260508110032 | 40 | 243 | 0.0 | 0.0 | 0.00 | 0.01 | 0.01 | 99 | 1010.6 |
| 20260508105527 | 40 | 239 | 0.0 | 0.0 | 0.00 | 0.01 | 0.01 | 99 | 1010.3 |
| 20260508105025 | 40 | 241 | 0.0 | 0.0 | 0.00 | 0.01 | 0.01 | 99 | 1010.2 |
| 20260508104523 | 40 | 243 | 0.0 | 0.0 | 0.00 | 0.01 | 0.01 | 99 | 1010.4 |
| 20260508104018 | 40 | 245 | 0.0 | 0.0 | 0.00 | 0.01 | 0.01 | 99 | 1010.6 |
| 20260508103516 | 40 | 241 | 0.0 | 0.0 | 0.00 | 0.01 | 0.01 | 99 | 1010.6 |
| 20260508103013 | 40 | 241 | 0.0 | 0.0 | 0.00 | 0.01 | 0.01 | 99 | 1010.4 |
| 20260508102511 | 39 | 238 | 0.0 | 0.0 | 0.00 | 0.01 | 0.01 | 99 | 1010.5 |
| 20260508102008 | 39 | 229 | 0.0 | 0.0 | 0.00 | 0.01 | 0.01 | 99 | 1010.1 |
| 20260508101506 | 39 | 236 | 0.0 | 0.0 | 0.00 | 0.01 | 0.01 | 99 | 1010.5 |